Time;durP1;ratioP1;P1;durP2;ratioP2;P2;SDS_P1;SDS_P2;PMS_P1;PMS_P2;Temp;Humidity;BMP_temperature;BMP_pressure;BME280_temperature;BME280_humidity;BME280_pressure;Samples;Min_cycle;Max_cycle;Signal;HPM_P1;HPM_P2
2021/12/16 00:01:41;;;;;;;49.80;16.80;;;6.70;99.90;;;;;;5117138;28;20051;-72
2021/12/16 00:08:34;;;;;;;51.72;17.92;;;6.50;99.90;;;;;;5116443;28;20082;-72
2021/12/16 00:32:43;;;;;;;56.65;19.83;;;6.40;99.90;;;;;;5114837;28;20052;-72
2021/12/16 00:35:09;;;;;;;56.90;19.67;;;6.40;99.90;;;;;;5115057;28;20047;-71
2021/12/16 00:37:35;;;;;;;55.33;19.25;;;6.30;99.90;;;;;;5115288;28;20047;-72
2021/12/16 00:40:02;;;;;;;56.28;19.35;;;6.30;99.90;;;;;;5079709;28;20116;-71
2021/12/16 00:45:21;;;;;;;69.85;22.13;;;6.30;99.90;;;;;;5113059;28;20412;-71
2021/12/16 00:55:51;;;;;;;62.60;20.45;;;6.60;99.90;;;;;;5114273;28;20124;-72
2021/12/16 00:58:22;;;;;;;66.57;21.63;;;6.60;99.90;;;;;;5097567;28;20083;-72
2021/12/16 01:00:58;;;;;;;64.75;21.63;;;6.60;99.90;;;;;;5113763;28;20126;-72
2021/12/16 01:03:33;;;;;;;63.95;22.05;;;6.70;99.90;;;;;;5096487;28;20444;-71
2021/12/16 01:08:52;;;;;;;81.47;23.95;;;6.60;99.90;;;;;;5096026;28;20048;-71
2021/12/16 01:52:08;;;;;;;73.53;22.27;;;6.30;99.90;;;;;;5113109;28;20142;-72
2021/12/16 01:54:50;;;;;;;76.05;22.83;;;6.40;99.90;;;;;;5129238;27;20052;-72
2021/12/16 01:57:26;;;;;;;76.70;23.48;;;6.50;99.90;;;;;;5113362;28;20097;-72
2021/12/16 02:00:02;;;;;;;66.45;22.95;;;6.60;99.90;;;;;;5113814;28;20128;-72
2021/12/16 02:02:48;;;;;;;68.22;22.80;;;6.60;99.90;;;;;;5094174;28;20559;-72
2021/12/16 02:05:28;;;;;;;87.07;24.55;;;6.70;99.90;;;;;;5113508;28;20047;-72
2021/12/16 02:10:34;;;;;;;75.95;23.85;;;6.90;99.90;;;;;;5112886;28;20063;-72
2021/12/16 02:29:22;;;;;;;76.30;23.80;;;7.20;99.90;;;;;;5095414;28;20134;-71
2021/12/16 02:36:50;;;;;;;79.78;24.40;;;7.30;99.90;;;;;;5113322;28;20182;-72
2021/12/16 02:39:26;;;;;;;75.15;23.58;;;7.30;99.90;;;;;;5113142;28;20040;-73
2021/12/16 02:41:56;;;;;;;76.32;25.02;;;7.30;99.90;;;;;;5113002;28;20035;-72
2021/12/16 02:44:35;;;;;;;71.68;23.70;;;7.30;99.90;;;;;;5113753;28;20063;-72
2021/12/16 02:49:49;;;;;;;69.32;23.52;;;7.40;99.90;;;;;;5116495;28;20083;-72
2021/12/16 02:52:21;;;;;;;86.60;24.45;;;7.40;99.90;;;;;;5116545;28;20039;-73
2021/12/16 02:54:48;;;;;;;76.38;23.85;;;7.40;99.90;;;;;;5116722;28;20526;-71
2021/12/16 02:57:14;;;;;;;75.03;23.70;;;7.40;99.90;;;;;;5116604;28;20044;-71
2021/12/16 02:59:41;;;;;;;75.18;24.77;;;7.40;99.90;;;;;;5098113;28;20036;-72
2021/12/16 03:02:12;;;;;;;81.57;23.17;;;7.40;99.90;;;;;;5116677;28;20088;-71
2021/12/16 03:04:42;;;;;;;64.05;23.85;;;7.40;99.90;;;;;;5116621;28;20196;-72
2021/12/16 03:07:11;;;;;;;68.00;22.90;;;7.50;99.90;;;;;;5115290;28;20039;-72
2021/12/16 03:15:12;;;;;;;74.30;23.35;;;7.40;99.90;;;;;;5116362;28;20052;-73
2021/12/16 03:17:50;;;;;;;76.82;24.15;;;7.40;99.90;;;;;;5115952;28;20059;-71
2021/12/16 03:20:34;;;;;;;79.47;23.38;;;7.40;99.90;;;;;;5116632;28;20467;-72
2021/12/16 03:23:42;;;;;;;96.47;26.65;;;7.50;99.90;;;;;;5115908;28;20044;-72
2021/12/16 03:38:53;;;;;;;79.28;24.15;;;7.40;99.90;;;;;;5115936;28;20047;-72
2021/12/16 03:41:20;;;;;;;75.60;24.02;;;7.40;99.90;;;;;;5115591;28;20035;-74
2021/12/16 03:43:49;;;;;;;73.13;23.55;;;7.50;99.90;;;;;;5115710;28;20441;-73
2021/12/16 03:46:26;;;;;;;84.82;24.50;;;7.50;99.90;;;;;;5097926;28;20051;-72
2021/12/16 03:49:04;;;;;;;78.97;23.70;;;7.50;99.90;;;;;;5131681;27;20044;-71
2021/12/16 03:51:30;;;;;;;76.43;23.27;;;7.50;99.90;;;;;;5097116;28;20056;-71
2021/12/16 03:54:21;;;;;;;72.10;23.23;;;7.50;99.90;;;;;;5097295;28;20130;-71
2021/12/16 03:56:48;;;;;;;79.50;23.88;;;7.50;99.90;;;;;;5103278;28;20055;-71
2021/12/16 03:59:18;;;;;;;83.72;25.35;;;7.50;99.90;;;;;;5080121;28;20067;-73
2021/12/16 04:01:44;;;;;;;73.78;22.70;;;7.60;99.90;;;;;;5115103;28;20041;-73
2021/12/16 04:04:10;;;;;;;76.18;23.50;;;7.60;99.90;;;;;;5096908;28;20134;-72
2021/12/16 04:06:38;;;;;;;81.20;25.10;;;7.60;99.90;;;;;;5097071;28;20074;-72
2021/12/16 04:09:06;;;;;;;70.97;23.30;;;7.60;99.90;;;;;;5115079;28;20070;-70
2021/12/16 04:11:41;;;;;;;73.78;23.25;;;7.60;99.90;;;;;;5114922;28;20043;-72
2021/12/16 04:14:13;;;;;;;74.68;23.50;;;7.60;99.90;;;;;;5114836;28;20048;-72
2021/12/16 04:16:45;;;;;;;69.15;22.58;;;7.70;99.90;;;;;;5131161;27;20054;-72
2021/12/16 04:19:13;;;;;;;71.53;22.95;;;7.70;99.90;;;;;;5097181;28;20097;-72
2021/12/16 04:21:42;;;;;;;65.05;22.73;;;7.80;99.90;;;;;;5115394;28;20404;-72
2021/12/16 04:24:09;;;;;;;65.35;23.05;;;7.70;99.90;;;;;;5130702;27;20093;-72
2021/12/16 04:26:37;;;;;;;73.28;23.42;;;7.70;99.90;;;;;;5115148;28;20073;-71
2021/12/16 04:29:05;;;;;;;74.07;22.52;;;7.80;99.90;;;;;;5130399;27;20499;-72
2021/12/16 04:31:32;;;;;;;66.20;22.98;;;7.70;99.90;;;;;;5114923;28;20059;-71
2021/12/16 04:33:58;;;;;;;71.80;23.27;;;7.70;99.90;;;;;;5114156;28;20047;-71
2021/12/16 04:36:24;;;;;;;76.55;23.65;;;7.80;99.90;;;;;;5096010;28;20054;-72
2021/12/16 04:38:53;;;;;;;66.97;22.38;;;7.80;99.90;;;;;;5096256;28;20375;-71
2021/12/16 04:41:19;;;;;;;66.95;21.75;;;7.80;99.90;;;;;;5114492;28;20047;-71
2021/12/16 04:43:48;;;;;;;74.93;23.23;;;7.80;99.90;;;;;;5130111;27;20054;-71
2021/12/16 04:46:21;;;;;;;69.20;22.50;;;7.80;99.90;;;;;;5113451;28;20286;-72
2021/12/16 04:48:49;;;;;;;70.82;24.10;;;7.80;99.90;;;;;;5114176;28;20092;-72
2021/12/16 04:51:17;;;;;;;66.57;22.73;;;7.80;99.90;;;;;;5114261;28;20035;-72
2021/12/16 04:53:43;;;;;;;76.95;25.38;;;7.90;99.90;;;;;;5079098;28;20484;-73
2021/12/16 04:56:12;;;;;;;71.78;23.10;;;7.80;99.90;;;;;;5095971;28;20055;-72
2021/12/16 04:58:38;;;;;;;76.43;22.95;;;7.80;99.90;;;;;;5114230;28;20122;-71
2021/12/16 05:01:05;;;;;;;71.28;23.08;;;7.90;99.90;;;;;;5113783;28;20043;-71
2021/12/16 05:03:31;;;;;;;72.25;22.42;;;7.90;99.90;;;;;;5096032;28;20065;-73
2021/12/16 05:05:57;;;;;;;69.53;22.42;;;7.90;99.90;;;;;;5096178;28;20089;-72
2021/12/16 05:08:24;;;;;;;68.72;22.65;;;7.90;99.90;;;;;;5095303;28;20079;-72
2021/12/16 05:10:52;;;;;;;65.32;21.60;;;7.90;99.90;;;;;;5113950;28;20035;-72
2021/12/16 05:13:21;;;;;;;62.38;22.52;;;7.90;99.90;;;;;;5095744;28;20043;-71
2021/12/16 05:15:47;;;;;;;67.35;23.67;;;7.90;99.90;;;;;;5113514;28;20043;-72
2021/12/16 05:18:21;;;;;;;66.95;22.50;;;7.90;99.90;;;;;;5114030;28;20050;-70
2021/12/16 05:20:47;;;;;;;67.38;22.13;;;7.80;99.90;;;;;;5113568;28;20051;-71
2021/12/16 05:28:39;;;;;;;65.82;21.83;;;7.80;99.90;;;;;;5113660;28;20534;-72
2021/12/16 05:31:05;;;;;;;63.42;21.48;;;7.80;99.90;;;;;;5128944;27;20104;-71
2021/12/16 05:33:31;;;;;;;64.90;22.30;;;7.80;99.90;;;;;;5129674;27;20047;-72
2021/12/16 05:35:58;;;;;;;61.23;21.83;;;7.90;99.90;;;;;;5095177;28;20048;-71
2021/12/16 05:38:26;;;;;;;69.00;21.60;;;7.90;99.90;;;;;;5114060;28;20039;-71
2021/12/16 05:40:53;;;;;;;73.22;25.25;;;7.90;99.90;;;;;;5078265;28;20044;-71
2021/12/16 05:43:23;;;;;;;62.85;21.38;;;7.90;99.90;;;;;;5113006;28;20063;-71
2021/12/16 05:45:49;;;;;;;70.32;22.33;;;7.90;99.90;;;;;;5095109;28;20048;-71
2021/12/16 05:48:17;;;;;;;66.60;22.93;;;7.90;99.90;;;;;;5113444;28;20100;-71
2021/12/16 05:50:46;;;;;;;75.22;22.70;;;7.90;99.90;;;;;;5113111;28;20273;-71
2021/12/16 05:53:13;;;;;;;65.45;23.08;;;7.90;99.90;;;;;;5113119;28;20131;-71
2021/12/16 05:55:39;;;;;;;66.63;21.77;;;7.90;99.90;;;;;;5113111;28;20454;-72
2021/12/16 05:58:07;;;;;;;65.40;22.25;;;7.90;99.90;;;;;;5095105;28;20047;-71
2021/12/16 06:00:41;;;;;;;65.10;21.88;;;7.90;99.90;;;;;;5094739;28;20051;-71
2021/12/16 06:03:08;;;;;;;66.97;21.73;;;7.90;99.90;;;;;;5113359;28;20183;-71
2021/12/16 06:05:34;;;;;;;75.57;24.17;;;8.00;99.90;;;;;;5094593;28;20131;-72
2021/12/16 06:08:01;;;;;;;68.32;23.02;;;8.00;99.90;;;;;;5094815;28;20288;-72
2021/12/16 06:12:52;;;;;;;64.07;23.10;;;8.00;99.90;;;;;;5095432;28;20112;-72
2021/12/16 06:15:34;;;;;;;61.50;21.90;;;8.00;99.90;;;;;;5113685;28;20039;-72
2021/12/16 06:26:38;;;;;;;76.32;23.40;;;8.00;99.90;;;;;;5119844;28;20052;-72
2021/12/16 06:29:04;;;;;;;58.38;22.83;;;8.00;99.90;;;;;;5120680;28;20452;-73
2021/12/16 06:31:31;;;;;;;55.47;20.60;;;8.00;99.90;;;;;;5120193;28;20040;-74
2021/12/16 06:33:57;;;;;;;58.58;21.27;;;8.10;99.90;;;;;;5120353;28;20126;-73
2021/12/16 06:36:23;;;;;;;67.75;22.83;;;8.10;99.90;;;;;;5100029;28;20559;-71
2021/12/16 06:38:49;;;;;;;64.45;22.15;;;8.10;99.90;;;;;;5116957;28;20051;-71
2021/12/16 06:41:17;;;;;;;65.35;21.85;;;8.10;99.90;;;;;;5117098;28;20145;-72
2021/12/16 06:43:43;;;;;;;64.85;21.38;;;8.10;99.90;;;;;;5097736;28;20055;-72
2021/12/16 06:46:14;;;;;;;59.47;20.52;;;8.10;99.90;;;;;;5098520;28;20051;-72
2021/12/16 06:48:42;;;;;;;56.70;21.30;;;8.10;99.90;;;;;;5115659;28;20062;-72
2021/12/16 06:51:13;;;;;;;58.90;21.30;;;8.10;99.90;;;;;;5098480;28;20035;-72
2021/12/16 06:54:27;;;;;;;59.78;20.65;;;8.20;99.90;;;;;;5116732;28;20044;-72
2021/12/16 06:56:32;;;;;;;62.33;21.02;;;8.10;99.90;;;;;;5102236;28;20116;-72
2021/12/16 06:59:08;;;;;;;67.10;21.63;;;8.10;99.90;;;;;;5099214;28;20066;-72
2021/12/16 07:01:38;;;;;;;59.58;20.70;;;8.10;99.90;;;;;;5103284;28;20044;-73
2021/12/16 07:04:10;;;;;;;53.88;20.40;;;8.10;99.90;;;;;;5102629;28;20065;-72
2021/12/16 07:06:38;;;;;;;59.67;20.65;;;8.10;99.90;;;;;;5120272;28;20048;-73
2021/12/16 07:09:15;;;;;;;51.30;19.60;;;8.10;99.90;;;;;;5137033;27;20065;-74
2021/12/16 07:11:52;;;;;;;61.58;20.55;;;8.10;99.90;;;;;;5116696;28;20483;-72
2021/12/16 07:14:19;;;;;;;63.38;21.83;;;8.00;99.90;;;;;;5098800;28;20108;-72
2021/12/16 07:16:54;;;;;;;58.03;20.65;;;7.90;99.90;;;;;;5131904;27;20054;-73
2021/12/16 07:19:20;;;;;;;57.47;20.73;;;7.90;99.90;;;;;;5116843;28;20075;-73
2021/12/16 07:21:46;;;;;;;60.35;20.42;;;7.80;99.90;;;;;;5080600;28;20498;-73
2021/12/16 07:24:16;;;;;;;58.35;20.00;;;7.70;99.90;;;;;;5132118;27;20051;-72
2021/12/16 07:26:42;;;;;;;62.80;22.58;;;7.70;99.90;;;;;;5080735;28;20046;-72
2021/12/16 07:29:09;;;;;;;59.08;21.45;;;7.60;99.90;;;;;;5097453;28;20141;-72
2021/12/16 07:31:37;;;;;;;62.70;21.77;;;7.60;99.90;;;;;;5131480;27;20051;-73
2021/12/16 07:34:04;;;;;;;61.50;21.25;;;7.50;99.90;;;;;;5097888;28;20510;-73
2021/12/16 07:36:32;;;;;;;63.08;21.85;;;7.40;99.90;;;;;;5131863;27;20051;-73
2021/12/16 07:38:58;;;;;;;60.22;21.48;;;7.40;99.90;;;;;;5114727;27;20056;-73
2021/12/16 07:41:31;;;;;;;64.13;21.67;;;7.40;99.90;;;;;;5131377;27;20062;-72
2021/12/16 07:44:09;;;;;;;58.92;21.30;;;7.20;99.90;;;;;;5114036;28;20066;-72
2021/12/16 07:46:40;;;;;;;61.47;21.23;;;7.20;99.90;;;;;;5115746;28;20360;-73
2021/12/16 07:49:08;;;;;;;72.63;22.67;;;7.20;99.90;;;;;;5097370;28;20050;-72
2021/12/16 07:51:35;;;;;;;64.60;21.02;;;7.10;99.90;;;;;;5115590;28;20055;-72
2021/12/16 07:54:01;;;;;;;67.65;22.77;;;7.10;99.90;;;;;;5115479;28;20065;-72
2021/12/16 07:56:27;;;;;;;78.00;22.45;;;7.10;99.90;;;;;;5116342;28;20461;-71
2021/12/16 07:58:53;;;;;;;75.60;22.42;;;7.20;99.90;;;;;;5097333;28;20043;-71
2021/12/16 08:01:19;;;;;;;73.22;23.65;;;7.20;99.90;;;;;;5114150;27;20499;-72
2021/12/16 08:03:45;;;;;;;75.57;24.75;;;7.20;99.90;;;;;;5115385;28;20051;-73
2021/12/16 08:06:18;;;;;;;71.38;21.30;;;7.30;99.90;;;;;;5116231;28;20054;-72
2021/12/16 08:08:44;;;;;;;82.25;23.80;;;7.20;99.90;;;;;;5115722;28;20047;-73
2021/12/16 08:11:10;;;;;;;83.28;22.75;;;7.20;99.90;;;;;;5115645;27;20211;-73
2021/12/16 08:13:36;;;;;;;82.03;23.67;;;7.30;99.90;;;;;;5116575;28;20136;-73
2021/12/16 08:16:02;;;;;;;78.68;22.95;;;7.40;99.90;;;;;;5115816;28;20047;-72
2021/12/16 08:18:29;;;;;;;74.93;23.20;;;7.40;99.90;;;;;;5097741;28;20221;-72
2021/12/16 08:20:55;;;;;;;;;;;7.40;99.90;;;;;;5080497;28;20039;-73
2021/12/16 08:23:21;;;;;;;107.40;23.65;;;7.40;99.90;;;;;;5097707;28;19980;-72
2021/12/16 08:25:47;;;;;;;84.73;22.93;;;7.40;99.90;;;;;;5115105;28;20059;-73
2021/12/16 08:28:13;;;;;;;109.30;24.13;;;7.40;99.90;;;;;;5079946;28;20056;-72
2021/12/16 08:30:43;;;;;;;71.43;22.70;;;7.50;99.90;;;;;;5114750;28;20035;-73
2021/12/16 08:33:11;;;;;;;88.43;23.83;;;7.50;99.90;;;;;;5131158;27;20517;-73
2021/12/16 08:35:42;;;;;;;87.35;24.65;;;7.60;99.90;;;;;;5115002;28;20056;-73
2021/12/16 08:38:10;;;;;;;94.65;22.98;;;7.60;99.90;;;;;;5096464;28;20048;-73
2021/12/16 08:40:39;;;;;;;91.95;20.65;;;7.60;99.90;;;;;;5114824;28;20048;-73
2021/12/16 08:43:05;;;;;;;144.18;21.58;;;7.70;99.90;;;;;;5113980;28;20048;-73
2021/12/16 08:45:32;;;;;;;116.18;21.80;;;7.70;99.90;;;;;;5114397;28;20066;-73
2021/12/16 08:47:59;;;;;;;149.52;23.17;;;7.70;99.90;;;;;;5096600;28;20055;-72
2021/12/16 08:50:29;;;;;;;92.85;20.38;;;7.70;99.90;;;;;;5114883;28;20043;-73
2021/12/16 08:52:56;;;;;;;106.30;21.15;;;7.70;99.90;;;;;;5095996;28;20119;-73
2021/12/16 08:55:23;;;;;;;119.50;21.58;;;7.70;99.90;;;;;;5096241;28;20124;-73
2021/12/16 08:57:49;;;;;;;;;;;7.70;99.90;;;;;;5129894;27;20505;-73
2021/12/16 09:00:21;;;;;;;127.57;21.63;;;7.70;99.90;;;;;;5114171;28;20274;-73
2021/12/16 09:02:47;;;;;;;261.50;25.23;;;7.70;99.90;;;;;;5114189;28;20070;-73
2021/12/16 09:05:13;;;;;;;111.10;22.02;;;7.80;99.90;;;;;;5096168;28;20412;-72
2021/12/16 09:07:40;;;;;;;175.73;21.00;;;7.90;99.90;;;;;;5130821;27;20142;-74
2021/12/16 09:10:10;;;;;;;109.50;19.55;;;7.90;99.90;;;;;;5096531;28;20435;-72
2021/12/16 09:12:49;;;;;;;182.50;21.13;;;8.10;99.90;;;;;;5131062;27;20309;-73
2021/12/16 09:15:15;;;;;;;157.90;19.63;;;8.00;99.90;;;;;;5130387;27;20492;-73
2021/12/16 09:17:41;;;;;;;88.43;17.50;;;8.00;99.90;;;;;;5095752;28;20122;-73
2021/12/16 09:20:09;;;;;;;64.55;16.60;;;8.10;99.90;;;;;;5113777;28;20090;-72
2021/12/16 09:22:35;;;;;;;70.78;16.73;;;8.10;99.90;;;;;;5114005;28;20097;-73
2021/12/16 09:25:01;;;;;;;77.65;16.02;;;8.10;99.90;;;;;;5113527;28;20058;-73
2021/12/16 09:27:27;;;;;;;55.97;15.38;;;8.10;99.90;;;;;;5113618;28;20047;-73
2021/12/16 09:29:54;;;;;;;63.50;16.95;;;8.10;99.90;;;;;;5113604;28;20399;-72
2021/12/16 09:32:22;;;;;;;;;;;8.20;99.90;;;;;;5114136;28;20062;-73
2021/12/16 09:34:48;;;;;;;58.72;14.85;;;8.20;99.90;;;;;;5113391;28;20331;-73
2021/12/16 09:37:14;;;;;;;45.72;14.98;;;8.30;99.90;;;;;;5095355;28;20051;-71
2021/12/16 09:39:41;;;;;;;72.22;15.93;;;8.30;99.90;;;;;;5113396;28;20128;-72
2021/12/16 09:42:09;;;;;;;44.63;14.63;;;8.20;99.90;;;;;;5113665;28;20051;-73
2021/12/16 09:44:36;;;;;;;56.25;15.32;;;8.20;99.90;;;;;;5129857;27;20066;-71
2021/12/16 09:47:06;;;;;;;55.58;16.80;;;8.20;99.90;;;;;;5115304;28;20149;-73
2021/12/16 09:49:31;;;;;;;48.53;15.05;;;8.10;99.90;;;;;;5114525;28;20079;-73
2021/12/16 09:51:59;;;;;;;53.45;15.60;;;8.20;99.90;;;;;;5116150;28;20043;-74
2021/12/16 09:54:29;;;;;;;54.42;16.00;;;8.20;99.90;;;;;;5116249;28;20142;-73
2021/12/16 09:56:56;;;;;;;62.53;16.65;;;8.30;99.90;;;;;;5132132;27;20044;-73
2021/12/16 09:59:25;;;;;;;47.40;15.35;;;8.20;99.90;;;;;;5131067;27;20086;-74
2021/12/16 10:01:54;;;;;;;52.25;16.67;;;8.20;99.90;;;;;;5114799;28;20062;-72
2021/12/16 10:04:23;;;;;;;47.97;15.60;;;8.30;99.90;;;;;;5097834;28;20071;-72
2021/12/16 10:06:52;;;;;;;51.70;14.65;;;8.30;99.90;;;;;;5116047;28;20149;-72
2021/12/16 10:09:19;;;;;;;45.47;16.05;;;8.30;99.90;;;;;;5082278;28;20475;-73
2021/12/16 10:11:48;;;;;;;42.58;15.48;;;8.40;99.90;;;;;;5114521;28;20044;-72
2021/12/16 10:14:30;;;;;;;43.33;13.93;;;8.40;99.90;;;;;;5130755;27;20498;-73
2021/12/16 10:19:43;;;;;;;38.63;14.93;;;8.40;99.90;;;;;;5099027;28;20059;-73
2021/12/16 10:22:20;;;;;;;47.92;14.13;;;8.40;99.90;;;;;;5084371;28;20047;-74
2021/12/16 10:24:48;;;;;;;42.00;15.65;;;8.40;99.90;;;;;;5136068;28;20044;-74
2021/12/16 10:27:24;;;;;;;50.58;15.15;;;8.50;99.90;;;;;;5118568;28;20107;-73
2021/12/16 10:30:00;;;;;;;41.22;15.38;;;8.40;99.90;;;;;;5099446;28;20047;-74
2021/12/16 10:32:32;;;;;;;46.13;14.05;;;8.30;99.90;;;;;;5119157;28;20130;-72
2021/12/16 10:35:00;;;;;;;43.50;14.35;;;8.30;99.90;;;;;;5119206;28;20055;-75
2021/12/16 10:37:35;;;;;;;44.05;14.95;;;8.40;99.90;;;;;;5119517;28;20050;-72
2021/12/16 10:40:35;;;;;;;47.30;14.82;;;8.40;99.90;;;;;;5121637;28;20118;-73
2021/12/16 10:43:06;;;;;;;37.03;13.57;;;8.20;99.90;;;;;;5098245;28;20381;-73
2021/12/16 10:45:51;;;;;;;41.67;14.20;;;8.30;99.90;;;;;;5099220;28;20091;-74
2021/12/16 10:48:25;;;;;;;41.28;14.27;;;8.30;99.90;;;;;;5117055;28;20044;-72
2021/12/16 10:50:59;;;;;;;60.25;15.40;;;8.40;99.90;;;;;;5116058;28;20044;-73
2021/12/16 10:53:52;;;;;;;51.80;14.52;;;8.40;99.90;;;;;;5115888;28;20131;-72
2021/12/16 10:56:43;;;;;;;35.83;13.68;;;8.50;99.90;;;;;;5114648;28;20043;-75
2021/12/16 10:59:18;;;;;;;47.20;13.88;;;8.50;99.90;;;;;;5086871;28;20051;-74
2021/12/16 11:01:51;;;;;;;58.90;14.55;;;8.40;99.90;;;;;;5100558;28;20047;-74
2021/12/16 11:04:29;;;;;;;41.97;13.75;;;8.50;99.90;;;;;;5117342;28;20048;-74
2021/12/16 11:07:05;;;;;;;39.50;14.13;;;8.70;99.90;;;;;;5101733;28;20051;-74
2021/12/16 11:09:48;;;;;;;115.85;17.58;;;8.70;99.90;;;;;;5136013;27;20055;-74
2021/12/16 11:12:22;;;;;;;56.55;14.10;;;8.80;99.90;;;;;;5118121;28;20091;-73
2021/12/16 11:14:56;;;;;;;48.30;15.13;;;8.80;99.90;;;;;;5118117;28;20051;-72
2021/12/16 11:17:25;;;;;;;43.30;13.77;;;8.90;99.90;;;;;;5118464;28;20040;-73
2021/12/16 11:19:59;;;;;;;41.00;15.45;;;8.90;99.90;;;;;;5134645;27;20047;-74
2021/12/16 11:22:32;;;;;;;37.63;14.07;;;8.80;99.90;;;;;;5117838;28;20134;-72
2021/12/16 11:25:21;;;;;;;40.30;14.60;;;8.90;99.90;;;;;;5117116;28;20066;-73
2021/12/16 11:28:10;;;;;;;39.10;14.13;;;8.90;99.90;;;;;;5116691;28;20575;-73
2021/12/16 11:30:52;;;;;;;41.72;14.30;;;9.00;99.90;;;;;;5097388;28;20087;-72
2021/12/16 11:33:38;;;;;;;38.47;14.15;;;9.00;99.90;;;;;;5098565;28;20047;-73
2021/12/16 11:36:19;;;;;;;38.63;13.18;;;9.20;99.90;;;;;;5116511;28;20058;-74
2021/12/16 11:39:02;;;;;;;42.45;15.23;;;9.20;99.90;;;;;;5119210;28;20063;-73
2021/12/16 11:41:40;;;;;;;36.85;14.15;;;9.20;99.90;;;;;;5118317;28;20051;-76
2021/12/16 11:44:09;;;;;;;37.22;13.98;;;9.10;99.90;;;;;;5116572;28;20047;-73
2021/12/16 11:46:55;;;;;;;40.95;14.10;;;9.10;99.90;;;;;;5116029;28;20058;-75
2021/12/16 11:49:25;;;;;;;40.83;13.18;;;9.20;99.90;;;;;;5117923;28;20435;-72
2021/12/16 11:51:56;;;;;;;38.38;14.32;;;9.10;99.90;;;;;;5116793;28;20090;-73
2021/12/16 11:54:31;;;;;;;38.75;13.52;;;9.00;99.90;;;;;;5115531;27;20043;-74
2021/12/16 11:57:00;;;;;;;36.42;13.40;;;9.00;99.90;;;;;;5082070;28;20036;-73
2021/12/16 11:59:36;;;;;;;40.30;13.60;;;9.00;99.90;;;;;;5097514;28;20043;-73
2021/12/16 12:02:03;;;;;;;42.35;14.48;;;9.00;99.90;;;;;;5115541;28;20039;-73
2021/12/16 12:04:34;;;;;;;38.22;13.05;;;8.90;99.90;;;;;;5116421;28;20089;-74
2021/12/16 12:07:12;;;;;;;39.90;13.85;;;8.90;99.90;;;;;;5097828;28;20070;-74
2021/12/16 12:09:43;;;;;;;40.83;14.18;;;9.00;99.90;;;;;;5098451;28;20039;-74
2021/12/16 12:12:09;;;;;;;40.53;14.15;;;9.00;99.90;;;;;;5116858;28;20059;-73
2021/12/16 12:14:38;;;;;;;34.97;13.60;;;9.00;99.90;;;;;;5115402;28;20052;-73
2021/12/16 12:17:12;;;;;;;37.25;14.05;;;8.90;99.90;;;;;;5097280;28;20147;-73
2021/12/16 12:19:46;;;;;;;35.97;13.85;;;8.90;99.90;;;;;;5095172;28;20510;-73
2021/12/16 12:22:12;;;;;;;41.80;14.15;;;9.00;99.90;;;;;;5115565;28;20488;-74
2021/12/16 12:24:47;;;;;;;37.65;14.35;;;9.00;99.90;;;;;;5097441;28;20074;-73
2021/12/16 12:27:27;;;;;;;49.22;15.32;;;9.00;99.90;;;;;;5132550;27;20047;-74
2021/12/16 12:29:54;;;;;;;44.05;14.15;;;8.80;99.90;;;;;;5080949;28;20058;-75
2021/12/16 12:32:28;;;;;;;50.50;14.80;;;8.80;99.90;;;;;;5097200;28;20051;-72
2021/12/16 12:35:09;;;;;;;43.60;14.02;;;8.80;99.90;;;;;;5116239;28;20051;-74
2021/12/16 12:37:38;;;;;;;51.33;14.55;;;8.80;99.90;;;;;;5082661;28;20135;-73
2021/12/16 12:40:06;;;;;;;49.05;15.85;;;8.80;99.90;;;;;;5097998;28;20118;-73
2021/12/16 12:42:33;;;;;;;49.50;15.32;;;8.90;99.90;;;;;;5111574;28;20412;-74
2021/12/16 12:44:59;;;;;;;49.03;13.93;;;9.00;99.90;;;;;;5096252;28;20439;-73
2021/12/16 12:47:34;;;;;;;48.17;14.80;;;9.00;99.90;;;;;;5094339;28;20071;-74
2021/12/16 12:50:14;;;;;;;50.42;15.85;;;9.00;99.90;;;;;;5094364;28;20044;-72
2021/12/16 12:52:40;;;;;;;49.33;14.85;;;8.90;99.90;;;;;;5094201;28;20052;-74
2021/12/16 12:55:29;;;;;;;43.75;14.88;;;8.90;99.90;;;;;;5094153;28;20075;-72
2021/12/16 12:58:07;;;;;;;51.17;15.77;;;8.90;99.90;;;;;;5095563;28;20401;-72
2021/12/16 13:00:46;;;;;;;46.38;15.68;;;8.90;99.90;;;;;;5095016;28;20337;-75
2021/12/16 13:03:21;;;;;;;52.35;15.15;;;8.90;99.90;;;;;;5095279;28;20143;-73
2021/12/16 13:06:14;;;;;;;47.97;14.82;;;8.90;99.90;;;;;;5094876;28;20040;-74
2021/12/16 13:08:43;;;;;;;40.55;13.30;;;9.00;99.90;;;;;;5085043;28;20060;-73
2021/12/16 13:11:14;;;;;;;49.15;15.50;;;9.00;99.90;;;;;;5093529;28;20484;-74
2021/12/16 13:14:22;;;;;;;43.17;13.68;;;9.00;99.90;;;;;;5093513;28;20048;-75
2021/12/16 13:17:05;;;;;;;45.83;13.57;;;9.00;99.90;;;;;;5077374;28;20056;-74
2021/12/16 13:28:05;;;;;;;51.13;15.25;;;8.90;99.90;;;;;;5093271;28;20442;-74
2021/12/16 13:30:50;;;;;;;45.83;15.75;;;8.90;99.90;;;;;;5094055;28;20040;-75
2021/12/16 13:33:23;;;;;;;62.33;15.38;;;8.90;99.90;;;;;;5094439;28;20392;-75
2021/12/16 13:36:14;;;;;;;56.15;15.60;;;8.90;99.90;;;;;;5093347;28;20079;-73
2021/12/16 13:38:47;;;;;;;49.53;14.90;;;8.90;99.90;;;;;;5093064;28;20387;-73
2021/12/16 13:41:29;;;;;;;54.08;15.43;;;8.80;99.90;;;;;;5092747;28;20083;-73
2021/12/16 13:43:57;;;;;;;51.67;14.55;;;8.80;99.90;;;;;;5109937;28;20353;-74
2021/12/16 14:03:45;;;;;;;50.17;15.20;;;8.80;99.90;;;;;;5081286;28;20056;-73
2021/12/16 14:06:25;;;;;;;61.65;14.77;;;8.80;99.90;;;;;;5096834;28;20043;-74
2021/12/16 14:08:53;;;;;;;69.07;14.68;;;8.80;99.90;;;;;;5115032;28;20040;-74
2021/12/16 14:23:28;;;;;;;62.65;15.07;;;8.60;99.90;;;;;;5114875;28;20047;-73
2021/12/16 14:50:27;;;;;;;101.22;11.65;;;8.20;99.90;;;;;;5100229;28;20432;-73
2021/12/16 14:52:54;;;;;;;237.70;15.63;;;8.20;99.90;;;;;;5099885;28;20105;-73
2021/12/16 14:55:24;;;;;;;288.92;17.42;;;8.10;99.90;;;;;;5083324;28;20047;-74
2021/12/16 14:57:53;;;;;;;165.80;15.23;;;7.80;99.90;;;;;;5117442;28;20102;-73
2021/12/16 15:00:33;;;;;;;177.43;15.77;;;7.90;99.90;;;;;;5116809;28;20043;-73
2021/12/16 15:03:22;;;;;;;109.72;13.02;;;7.80;99.90;;;;;;5133273;27;20149;-73
2021/12/16 15:05:51;;;;;;;126.50;14.52;;;7.80;99.90;;;;;;5099006;28;20056;-73
2021/12/16 15:08:30;;;;;;;169.88;15.63;;;7.70;99.90;;;;;;5117025;28;20061;-74
2021/12/16 15:10:58;;;;;;;156.45;17.02;;;7.70;99.90;;;;;;5133140;27;20077;-74
2021/12/16 15:13:32;;;;;;;138.25;14.10;;;7.70;99.90;;;;;;5098376;28;20104;-74
2021/12/16 15:43:03;;;;;;;66.93;12.93;;;7.70;99.90;;;;;;5115642;28;20055;-72
2021/12/16 15:45:44;;;;;;;54.30;12.75;;;7.70;99.90;;;;;;5116194;28;20101;-74
2021/12/16 15:48:17;;;;;;;106.93;13.63;;;7.70;99.90;;;;;;5116016;28;20052;-73
2021/12/16 15:50:47;;;;;;;114.28;14.13;;;7.80;99.90;;;;;;5131354;27;20483;-73
2021/12/16 15:53:26;;;;;;;111.13;14.05;;;7.80;99.90;;;;;;5130695;27;20506;-72
2021/12/16 15:55:59;;;;;;;188.73;16.30;;;7.80;99.90;;;;;;5115892;28;20043;-72
2021/12/16 15:58:31;;;;;;;68.63;13.30;;;7.80;99.90;;;;;;5115820;28;20048;-72
2021/12/16 16:01:08;;;;;;;105.95;14.40;;;7.80;99.90;;;;;;5114659;28;20043;-72
2021/12/16 16:03:34;;;;;;;;;;;7.90;99.90;;;;;;5099282;28;20070;-73
2021/12/16 16:06:05;;;;;;;122.00;13.43;;;7.80;99.90;;;;;;5115872;28;19931;-73
2021/12/16 16:08:35;;;;;;;69.65;13.18;;;7.80;99.90;;;;;;5116655;28;20044;-72
2021/12/16 16:11:08;;;;;;;65.25;13.30;;;7.90;99.90;;;;;;5120177;28;20047;-71
2021/12/16 16:13:41;;;;;;;65.00;13.70;;;7.90;99.90;;;;;;5131719;27;20051;-73
2021/12/16 16:16:11;;;;;;;75.88;12.18;;;7.90;99.90;;;;;;5097073;28;20066;-72
2021/12/16 16:18:41;;;;;;;139.98;15.80;;;7.90;99.90;;;;;;5115413;28;20055;-72
2021/12/16 16:21:19;;;;;;;74.32;12.90;;;7.90;99.90;;;;;;5114484;28;20107;-72
2021/12/16 16:23:55;;;;;;;144.55;15.30;;;7.90;99.90;;;;;;5115843;28;20475;-73
2021/12/16 16:26:22;;;;;;;73.00;14.60;;;7.90;99.90;;;;;;5131993;27;20055;-72
2021/12/16 16:28:51;;;;;;;219.48;18.40;;;7.90;99.90;;;;;;5098156;28;20445;-72
2021/12/16 16:31:20;;;;;;;65.28;12.57;;;7.90;99.90;;;;;;5082064;28;20044;-73
2021/12/16 16:33:47;;;;;;;103.90;14.00;;;7.90;99.90;;;;;;5132320;27;20400;-72
2021/12/16 16:36:15;;;;;;;208.18;15.80;;;7.90;99.90;;;;;;5096980;28;20138;-71
2021/12/16 16:38:49;;;;;;;68.03;12.98;;;7.90;99.90;;;;;;5115284;28;20368;-74
2021/12/16 16:41:17;;;;;;;105.15;13.75;;;7.90;99.90;;;;;;5097617;28;20101;-73
2021/12/16 16:43:52;;;;;;;96.53;13.27;;;7.90;99.90;;;;;;5096902;28;20553;-72
2021/12/16 16:46:26;;;;;;;88.60;14.80;;;7.90;99.90;;;;;;5115961;28;20044;-72
2021/12/16 16:51:31;;;;;;;79.97;14.13;;;7.90;99.90;;;;;;5114840;28;20316;-71
2021/12/16 16:54:20;;;;;;;143.48;16.10;;;7.90;99.90;;;;;;5114285;28;20058;-73